sensor_id;sensor_type;location;lat;lon;timestamp;temperature;humidity
12655;DHT22;6392;44.644;11.448;2023-08-07T00:01:31;21.70;99.90
12655;DHT22;6392;44.644;11.448;2023-08-07T00:03:58;21.60;99.90
12655;DHT22;6392;44.644;11.448;2023-08-07T00:06:25;21.50;99.90
12655;DHT22;6392;44.644;11.448;2023-08-07T00:08:52;21.40;99.90
12655;DHT22;6392;44.644;11.448;2023-08-07T00:11:19;21.30;99.90
12655;DHT22;6392;44.644;11.448;2023-08-07T00:13:46;21.30;99.90
12655;DHT22;6392;44.644;11.448;2023-08-07T00:16:13;21.30;99.90
12655;DHT22;6392;44.644;11.448;2023-08-07T00:18:41;21.30;99.90
12655;DHT22;6392;44.644;11.448;2023-08-07T00:21:08;21.30;99.90
12655;DHT22;6392;44.644;11.448;2023-08-07T00:23:35;21.30;99.90
12655;DHT22;6392;44.644;11.448;2023-08-07T00:26:02;21.20;99.90
12655;DHT22;6392;44.644;11.448;2023-08-07T00:28:29;21.10;99.90
12655;DHT22;6392;44.644;11.448;2023-08-07T00:30:56;21.00;99.90
12655;DHT22;6392;44.644;11.448;2023-08-07T00:33:23;21.10;99.90
12655;DHT22;6392;44.644;11.448;2023-08-07T00:35:52;21.10;99.90
12655;DHT22;6392;44.644;11.448;2023-08-07T00:38:19;21.30;99.90
12655;DHT22;6392;44.644;11.448;2023-08-07T00:40:46;21.30;99.90
12655;DHT22;6392;44.644;11.448;2023-08-07T00:43:13;21.40;99.90
12655;DHT22;6392;44.644;11.448;2023-08-07T00:45:42;21.40;99.90
12655;DHT22;6392;44.644;11.448;2023-08-07T00:48:10;21.40;99.90
12655;DHT22;6392;44.644;11.448;2023-08-07T00:50:38;21.40;99.90
12655;DHT22;6392;44.644;11.448;2023-08-07T00:53:07;21.40;99.90
12655;DHT22;6392;44.644;11.448;2023-08-07T00:55:35;21.40;99.90
12655;DHT22;6392;44.644;11.448;2023-08-07T00:58:02;21.40;99.90
12655;DHT22;6392;44.644;11.448;2023-08-07T01:00:29;21.40;99.90
12655;DHT22;6392;44.644;11.448;2023-08-07T01:02:57;21.30;99.90
12655;DHT22;6392;44.644;11.448;2023-08-07T01:05:25;21.30;99.90
12655;DHT22;6392;44.644;11.448;2023-08-07T01:07:53;21.30;99.90
12655;DHT22;6392;44.644;11.448;2023-08-07T01:10:30;21.30;99.90
12655;DHT22;6392;44.644;11.448;2023-08-07T01:13:04;21.20;99.90
12655;DHT22;6392;44.644;11.448;2023-08-07T01:15:34;21.00;99.90
12655;DHT22;6392;44.644;11.448;2023-08-07T01:18:02;20.80;99.90
12655;DHT22;6392;44.644;11.448;2023-08-07T01:20:30;20.70;99.90
12655;DHT22;6392;44.644;11.448;2023-08-07T01:22:59;20.70;99.90
12655;DHT22;6392;44.644;11.448;2023-08-07T01:25:26;20.60;99.90
12655;DHT22;6392;44.644;11.448;2023-08-07T01:28:00;20.60;99.90
12655;DHT22;6392;44.644;11.448;2023-08-07T01:30:33;20.60;99.90
12655;DHT22;6392;44.644;11.448;2023-08-07T01:33:09;20.70;99.90
12655;DHT22;6392;44.644;11.448;2023-08-07T01:35:42;20.70;99.90
12655;DHT22;6392;44.644;11.448;2023-08-07T01:38:11;20.80;99.90
12655;DHT22;6392;44.644;11.448;2023-08-07T01:40:39;20.80;99.90
12655;DHT22;6392;44.644;11.448;2023-08-07T01:43:07;20.80;99.90
12655;DHT22;6392;44.644;11.448;2023-08-07T01:45:34;20.70;99.90
12655;DHT22;6392;44.644;11.448;2023-08-07T01:48:02;20.70;99.90
12655;DHT22;6392;44.644;11.448;2023-08-07T01:50:29;20.60;99.90
12655;DHT22;6392;44.644;11.448;2023-08-07T01:52:56;20.50;99.90
12655;DHT22;6392;44.644;11.448;2023-08-07T01:55:25;20.40;99.90
12655;DHT22;6392;44.644;11.448;2023-08-07T01:57:52;20.30;99.90
12655;DHT22;6392;44.644;11.448;2023-08-07T02:00:20;20.30;99.90
12655;DHT22;6392;44.644;11.448;2023-08-07T02:02:47;20.30;99.90
12655;DHT22;6392;44.644;11.448;2023-08-07T02:05:14;20.20;99.90
12655;DHT22;6392;44.644;11.448;2023-08-07T02:07:42;20.20;99.90
12655;DHT22;6392;44.644;11.448;2023-08-07T02:10:09;20.20;99.90
12655;DHT22;6392;44.644;11.448;2023-08-07T02:12:38;20.20;99.90
12655;DHT22;6392;44.644;11.448;2023-08-07T02:15:06;20.20;99.90
12655;DHT22;6392;44.644;11.448;2023-08-07T02:17:34;20.20;99.90
12655;DHT22;6392;44.644;11.448;2023-08-07T02:20:03;20.10;99.90
12655;DHT22;6392;44.644;11.448;2023-08-07T02:22:31;20.10;99.90
12655;DHT22;6392;44.644;11.448;2023-08-07T02:24:58;20.10;99.90
12655;DHT22;6392;44.644;11.448;2023-08-07T02:27:25;20.00;99.90
12655;DHT22;6392;44.644;11.448;2023-08-07T02:29:52;20.00;99.90
12655;DHT22;6392;44.644;11.448;2023-08-07T02:32:19;19.90;99.90
12655;DHT22;6392;44.644;11.448;2023-08-07T02:34:46;19.90;99.90
12655;DHT22;6392;44.644;11.448;2023-08-07T02:37:13;19.90;99.90
12655;DHT22;6392;44.644;11.448;2023-08-07T02:39:41;19.90;99.90
12655;DHT22;6392;44.644;11.448;2023-08-07T02:42:08;19.80;99.90
12655;DHT22;6392;44.644;11.448;2023-08-07T02:44:35;19.80;99.90
12655;DHT22;6392;44.644;11.448;2023-08-07T02:47:04;19.80;99.90
12655;DHT22;6392;44.644;11.448;2023-08-07T02:49:31;19.70;99.90
12655;DHT22;6392;44.644;11.448;2023-08-07T02:51:58;19.70;99.90
12655;DHT22;6392;44.644;11.448;2023-08-07T02:54:25;19.70;99.90
12655;DHT22;6392;44.644;11.448;2023-08-07T02:56:52;19.70;99.90
12655;DHT22;6392;44.644;11.448;2023-08-07T02:59:19;19.70;99.90
12655;DHT22;6392;44.644;11.448;2023-08-07T03:01:46;19.70;99.90
12655;DHT22;6392;44.644;11.448;2023-08-07T03:04:14;19.80;99.90
12655;DHT22;6392;44.644;11.448;2023-08-07T03:06:41;19.80;99.90
12655;DHT22;6392;44.644;11.448;2023-08-07T03:09:08;19.70;99.90
12655;DHT22;6392;44.644;11.448;2023-08-07T03:11:36;19.70;99.90
12655;DHT22;6392;44.644;11.448;2023-08-07T03:14:03;19.70;99.90
12655;DHT22;6392;44.644;11.448;2023-08-07T03:16:30;19.60;99.90
12655;DHT22;6392;44.644;11.448;2023-08-07T03:18:57;19.60;99.90
12655;DHT22;6392;44.644;11.448;2023-08-07T03:21:26;19.60;99.90
12655;DHT22;6392;44.644;11.448;2023-08-07T03:23:53;19.60;99.90
12655;DHT22;6392;44.644;11.448;2023-08-07T03:26:20;19.60;99.90
12655;DHT22;6392;44.644;11.448;2023-08-07T03:28:47;19.70;99.90
12655;DHT22;6392;44.644;11.448;2023-08-07T03:31:14;19.70;99.90
12655;DHT22;6392;44.644;11.448;2023-08-07T03:33:41;19.70;99.90
12655;DHT22;6392;44.644;11.448;2023-08-07T03:36:08;19.80;99.90
12655;DHT22;6392;44.644;11.448;2023-08-07T03:38:37;19.80;99.90
12655;DHT22;6392;44.644;11.448;2023-08-07T03:41:04;19.80;99.90
12655;DHT22;6392;44.644;11.448;2023-08-07T03:43:31;19.80;99.90
12655;DHT22;6392;44.644;11.448;2023-08-07T03:45:58;19.80;99.90
12655;DHT22;6392;44.644;11.448;2023-08-07T03:48:25;19.80;99.90
12655;DHT22;6392;44.644;11.448;2023-08-07T03:50:52;19.80;99.90
12655;DHT22;6392;44.644;11.448;2023-08-07T03:53:19;19.80;99.90
12655;DHT22;6392;44.644;11.448;2023-08-07T03:55:51;19.70;99.90
12655;DHT22;6392;44.644;11.448;2023-08-07T03:58:18;19.70;99.90
12655;DHT22;6392;44.644;11.448;2023-08-07T04:00:45;19.60;99.90
12655;DHT22;6392;44.644;11.448;2023-08-07T04:03:12;19.50;99.90
12655;DHT22;6392;44.644;11.448;2023-08-07T04:05:39;19.50;99.90
12655;DHT22;6392;44.644;11.448;2023-08-07T04:08:06;19.40;99.90
12655;DHT22;6392;44.644;11.448;2023-08-07T04:10:33;19.40;99.90
12655;DHT22;6392;44.644;11.448;2023-08-07T04:13:01;19.40;99.90
12655;DHT22;6392;44.644;11.448;2023-08-07T04:15:28;19.30;99.90
12655;DHT22;6392;44.644;11.448;2023-08-07T04:17:56;19.30;99.90
12655;DHT22;6392;44.644;11.448;2023-08-07T04:20:23;19.30;99.90
12655;DHT22;6392;44.644;11.448;2023-08-07T04:22:50;19.30;99.90
12655;DHT22;6392;44.644;11.448;2023-08-07T04:25:17;19.30;99.90
12655;DHT22;6392;44.644;11.448;2023-08-07T04:27:44;19.30;99.90
12655;DHT22;6392;44.644;11.448;2023-08-07T04:30:13;19.40;99.90
12655;DHT22;6392;44.644;11.448;2023-08-07T04:32:40;19.50;99.90
12655;DHT22;6392;44.644;11.448;2023-08-07T04:35:07;19.50;99.90
12655;DHT22;6392;44.644;11.448;2023-08-07T04:37:35;19.50;99.90
12655;DHT22;6392;44.644;11.448;2023-08-07T04:40:02;19.50;99.90
12655;DHT22;6392;44.644;11.448;2023-08-07T04:42:30;19.40;99.90
12655;DHT22;6392;44.644;11.448;2023-08-07T04:44:58;19.40;99.90
12655;DHT22;6392;44.644;11.448;2023-08-07T04:47:28;19.40;99.90
12655;DHT22;6392;44.644;11.448;2023-08-07T04:49:55;19.40;99.90
12655;DHT22;6392;44.644;11.448;2023-08-07T04:52:22;19.40;99.90
12655;DHT22;6392;44.644;11.448;2023-08-07T04:54:49;19.40;99.90
12655;DHT22;6392;44.644;11.448;2023-08-07T04:57:16;19.50;99.90
12655;DHT22;6392;44.644;11.448;2023-08-07T04:59:43;19.50;99.90
12655;DHT22;6392;44.644;11.448;2023-08-07T05:02:10;19.50;99.90
12655;DHT22;6392;44.644;11.448;2023-08-07T05:04:38;19.50;99.90
12655;DHT22;6392;44.644;11.448;2023-08-07T05:07:05;19.50;99.90
12655;DHT22;6392;44.644;11.448;2023-08-07T05:09:33;19.60;99.90
12655;DHT22;6392;44.644;11.448;2023-08-07T05:12:00;19.60;99.90
12655;DHT22;6392;44.644;11.448;2023-08-07T05:14:27;19.60;99.90
12655;DHT22;6392;44.644;11.448;2023-08-07T05:16:54;19.60;99.90
12655;DHT22;6392;44.644;11.448;2023-08-07T05:19:21;19.50;99.90
12655;DHT22;6392;44.644;11.448;2023-08-07T05:21:50;19.60;99.90
12655;DHT22;6392;44.644;11.448;2023-08-07T05:24:17;19.60;99.90
12655;DHT22;6392;44.644;11.448;2023-08-07T05:26:44;19.50;99.90
12655;DHT22;6392;44.644;11.448;2023-08-07T05:29:12;19.50;99.90
12655;DHT22;6392;44.644;11.448;2023-08-07T05:31:39;19.50;99.90
12655;DHT22;6392;44.644;11.448;2023-08-07T05:34:05;19.50;99.90
12655;DHT22;6392;44.644;11.448;2023-08-07T05:36:33;19.50;99.90
12655;DHT22;6392;44.644;11.448;2023-08-07T05:39:01;19.50;99.90
12655;DHT22;6392;44.644;11.448;2023-08-07T05:41:29;19.50;99.90
12655;DHT22;6392;44.644;11.448;2023-08-07T05:43:56;19.60;99.90
12655;DHT22;6392;44.644;11.448;2023-08-07T05:46:23;19.50;99.90
12655;DHT22;6392;44.644;11.448;2023-08-07T05:48:50;19.60;99.90
12655;DHT22;6392;44.644;11.448;2023-08-07T05:51:17;19.70;99.90
12655;DHT22;6392;44.644;11.448;2023-08-07T05:53:45;19.70;99.90
12655;DHT22;6392;44.644;11.448;2023-08-07T05:56:13;19.80;99.90
12655;DHT22;6392;44.644;11.448;2023-08-07T05:58:40;19.90;99.90
12655;DHT22;6392;44.644;11.448;2023-08-07T06:01:07;19.90;99.90
12655;DHT22;6392;44.644;11.448;2023-08-07T06:03:34;20.00;99.90
12655;DHT22;6392;44.644;11.448;2023-08-07T06:06:01;20.00;99.90
12655;DHT22;6392;44.644;11.448;2023-08-07T06:08:29;19.90;99.90
12655;DHT22;6392;44.644;11.448;2023-08-07T06:10:56;19.90;99.90
12655;DHT22;6392;44.644;11.448;2023-08-07T06:13:24;19.90;99.90
12655;DHT22;6392;44.644;11.448;2023-08-07T06:15:51;20.00;99.90
12655;DHT22;6392;44.644;11.448;2023-08-07T06:18:18;20.10;99.90
12655;DHT22;6392;44.644;11.448;2023-08-07T06:20:45;20.20;99.90
12655;DHT22;6392;44.644;11.448;2023-08-07T06:23:12;20.20;99.90
12655;DHT22;6392;44.644;11.448;2023-08-07T06:25:39;20.30;99.90
12655;DHT22;6392;44.644;11.448;2023-08-07T06:28:06;20.30;99.90
12655;DHT22;6392;44.644;11.448;2023-08-07T06:30:34;20.40;99.90
12655;DHT22;6392;44.644;11.448;2023-08-07T06:33:01;20.40;99.90
12655;DHT22;6392;44.644;11.448;2023-08-07T06:35:28;20.40;99.90
12655;DHT22;6392;44.644;11.448;2023-08-07T06:37:55;20.50;99.90
12655;DHT22;6392;44.644;11.448;2023-08-07T06:40:22;20.50;99.90
12655;DHT22;6392;44.644;11.448;2023-08-07T06:42:49;20.50;99.90
12655;DHT22;6392;44.644;11.448;2023-08-07T06:45:16;20.60;99.90
12655;DHT22;6392;44.644;11.448;2023-08-07T06:47:44;20.60;99.90
12655;DHT22;6392;44.644;11.448;2023-08-07T06:50:13;20.60;99.90
12655;DHT22;6392;44.644;11.448;2023-08-07T06:52:40;20.70;99.90
12655;DHT22;6392;44.644;11.448;2023-08-07T06:55:07;20.70;99.90
12655;DHT22;6392;44.644;11.448;2023-08-07T06:57:34;20.70;99.90
12655;DHT22;6392;44.644;11.448;2023-08-07T07:00:02;20.80;99.90
12655;DHT22;6392;44.644;11.448;2023-08-07T07:02:29;20.90;99.90
12655;DHT22;6392;44.644;11.448;2023-08-07T07:04:59;20.90;99.90
12655;DHT22;6392;44.644;11.448;2023-08-07T07:07:26;20.80;99.90
12655;DHT22;6392;44.644;11.448;2023-08-07T07:09:53;20.80;99.90
12655;DHT22;6392;44.644;11.448;2023-08-07T07:12:20;20.80;99.90
12655;DHT22;6392;44.644;11.448;2023-08-07T07:14:46;20.80;99.90
12655;DHT22;6392;44.644;11.448;2023-08-07T07:17:13;20.80;99.90
12655;DHT22;6392;44.644;11.448;2023-08-07T07:19:41;20.90;99.90
12655;DHT22;6392;44.644;11.448;2023-08-07T07:22:10;21.00;99.90
12655;DHT22;6392;44.644;11.448;2023-08-07T07:24:38;21.00;99.90
12655;DHT22;6392;44.644;11.448;2023-08-07T07:27:05;21.10;99.90
12655;DHT22;6392;44.644;11.448;2023-08-07T07:29:33;21.10;99.90
12655;DHT22;6392;44.644;11.448;2023-08-07T07:32:00;21.10;99.90
12655;DHT22;6392;44.644;11.448;2023-08-07T07:34:27;21.20;99.90
12655;DHT22;6392;44.644;11.448;2023-08-07T07:36:54;21.30;99.90
12655;DHT22;6392;44.644;11.448;2023-08-07T07:39:22;21.40;99.90
12655;DHT22;6392;44.644;11.448;2023-08-07T07:41:49;21.50;99.90
12655;DHT22;6392;44.644;11.448;2023-08-07T07:44:16;21.50;99.90
12655;DHT22;6392;44.644;11.448;2023-08-07T07:46:43;21.60;99.90
12655;DHT22;6392;44.644;11.448;2023-08-07T07:49:10;21.60;99.90
12655;DHT22;6392;44.644;11.448;2023-08-07T07:51:37;21.70;99.90
12655;DHT22;6392;44.644;11.448;2023-08-07T07:54:06;21.70;99.90
12655;DHT22;6392;44.644;11.448;2023-08-07T07:56:34;21.70;99.90
12655;DHT22;6392;44.644;11.448;2023-08-07T07:59:01;21.70;99.90
12655;DHT22;6392;44.644;11.448;2023-08-07T08:01:28;21.70;99.90
12655;DHT22;6392;44.644;11.448;2023-08-07T08:03:55;21.80;99.90
12655;DHT22;6392;44.644;11.448;2023-08-07T08:06:22;21.80;99.90
12655;DHT22;6392;44.644;11.448;2023-08-07T08:08:49;21.80;99.90
12655;DHT22;6392;44.644;11.448;2023-08-07T08:11:16;21.80;99.90
12655;DHT22;6392;44.644;11.448;2023-08-07T08:13:45;21.90;99.90
12655;DHT22;6392;44.644;11.448;2023-08-07T08:16:12;22.00;99.90
12655;DHT22;6392;44.644;11.448;2023-08-07T08:18:39;22.00;99.90
12655;DHT22;6392;44.644;11.448;2023-08-07T08:21:06;22.00;99.90
12655;DHT22;6392;44.644;11.448;2023-08-07T08:23:33;22.10;99.90
12655;DHT22;6392;44.644;11.448;2023-08-07T08:26:00;22.10;99.90
12655;DHT22;6392;44.644;11.448;2023-08-07T08:28:27;22.20;99.90
12655;DHT22;6392;44.644;11.448;2023-08-07T08:30:56;22.30;99.90
12655;DHT22;6392;44.644;11.448;2023-08-07T08:33:23;22.30;99.90
12655;DHT22;6392;44.644;11.448;2023-08-07T08:35:50;22.30;99.90
12655;DHT22;6392;44.644;11.448;2023-08-07T08:38:17;22.40;99.90
12655;DHT22;6392;44.644;11.448;2023-08-07T08:40:45;22.40;99.90
12655;DHT22;6392;44.644;11.448;2023-08-07T08:43:13;22.40;99.90
12655;DHT22;6392;44.644;11.448;2023-08-07T08:45:41;22.50;99.90
12655;DHT22;6392;44.644;11.448;2023-08-07T08:48:12;22.50;99.90
12655;DHT22;6392;44.644;11.448;2023-08-07T08:50:44;22.60;99.90
12655;DHT22;6392;44.644;11.448;2023-08-07T08:53:12;22.70;99.90
12655;DHT22;6392;44.644;11.448;2023-08-07T08:55:40;22.80;99.90
12655;DHT22;6392;44.644;11.448;2023-08-07T08:58:12;22.80;99.90
12655;DHT22;6392;44.644;11.448;2023-08-07T09:00:40;22.90;99.90
12655;DHT22;6392;44.644;11.448;2023-08-07T09:03:09;22.90;99.90
12655;DHT22;6392;44.644;11.448;2023-08-07T09:05:37;23.00;99.90
12655;DHT22;6392;44.644;11.448;2023-08-07T09:08:04;23.10;99.90
12655;DHT22;6392;44.644;11.448;2023-08-07T09:10:32;23.10;99.90
12655;DHT22;6392;44.644;11.448;2023-08-07T09:13:01;23.10;99.90
12655;DHT22;6392;44.644;11.448;2023-08-07T09:15:31;23.20;99.90
12655;DHT22;6392;44.644;11.448;2023-08-07T09:17:59;23.30;99.90
12655;DHT22;6392;44.644;11.448;2023-08-07T09:20:28;23.30;99.90
12655;DHT22;6392;44.644;11.448;2023-08-07T09:22:55;23.30;99.90
12655;DHT22;6392;44.644;11.448;2023-08-07T09:25:28;23.40;99.90
12655;DHT22;6392;44.644;11.448;2023-08-07T09:27:56;23.40;99.90
12655;DHT22;6392;44.644;11.448;2023-08-07T09:30:26;23.50;99.90
12655;DHT22;6392;44.644;11.448;2023-08-07T09:32:54;23.50;99.90
12655;DHT22;6392;44.644;11.448;2023-08-07T09:35:21;23.60;99.90
12655;DHT22;6392;44.644;11.448;2023-08-07T09:37:50;23.70;99.90
12655;DHT22;6392;44.644;11.448;2023-08-07T09:40:18;23.70;99.90
12655;DHT22;6392;44.644;11.448;2023-08-07T09:42:50;23.80;99.90
12655;DHT22;6392;44.644;11.448;2023-08-07T09:45:23;23.80;99.90
12655;DHT22;6392;44.644;11.448;2023-08-07T09:47:57;23.90;99.90
12655;DHT22;6392;44.644;11.448;2023-08-07T09:50:25;23.90;99.90
12655;DHT22;6392;44.644;11.448;2023-08-07T09:52:54;24.00;99.90
12655;DHT22;6392;44.644;11.448;2023-08-07T09:55:23;24.00;99.90
12655;DHT22;6392;44.644;11.448;2023-08-07T09:57:51;24.00;99.90
12655;DHT22;6392;44.644;11.448;2023-08-07T10:00:19;24.10;99.90
12655;DHT22;6392;44.644;11.448;2023-08-07T10:02:47;24.10;99.90
12655;DHT22;6392;44.644;11.448;2023-08-07T10:05:15;24.10;99.90
12655;DHT22;6392;44.644;11.448;2023-08-07T10:07:42;24.10;99.90
12655;DHT22;6392;44.644;11.448;2023-08-07T10:10:11;24.20;99.90
12655;DHT22;6392;44.644;11.448;2023-08-07T10:12:38;24.30;99.90
12655;DHT22;6392;44.644;11.448;2023-08-07T10:15:06;24.30;99.90
12655;DHT22;6392;44.644;11.448;2023-08-07T10:17:34;24.30;99.90
12655;DHT22;6392;44.644;11.448;2023-08-07T10:20:01;24.40;99.90
12655;DHT22;6392;44.644;11.448;2023-08-07T10:22:30;24.40;99.90
12655;DHT22;6392;44.644;11.448;2023-08-07T10:25:01;24.50;99.90
12655;DHT22;6392;44.644;11.448;2023-08-07T10:27:34;24.50;99.90
12655;DHT22;6392;44.644;11.448;2023-08-07T10:30:06;24.60;99.90
12655;DHT22;6392;44.644;11.448;2023-08-07T10:32:34;24.60;99.90
12655;DHT22;6392;44.644;11.448;2023-08-07T10:35:03;24.70;99.90
12655;DHT22;6392;44.644;11.448;2023-08-07T10:37:39;24.70;99.90
12655;DHT22;6392;44.644;11.448;2023-08-07T10:40:08;24.70;99.90
12655;DHT22;6392;44.644;11.448;2023-08-07T10:42:56;24.70;99.90
12655;DHT22;6392;44.644;11.448;2023-08-07T10:45:24;24.80;99.90
12655;DHT22;6392;44.644;11.448;2023-08-07T10:48:05;24.90;99.90
12655;DHT22;6392;44.644;11.448;2023-08-07T10:50:33;24.90;99.90
12655;DHT22;6392;44.644;11.448;2023-08-07T10:53:01;24.90;99.90
12655;DHT22;6392;44.644;11.448;2023-08-07T10:55:31;24.90;99.90
12655;DHT22;6392;44.644;11.448;2023-08-07T10:58:00;24.90;99.90
12655;DHT22;6392;44.644;11.448;2023-08-07T11:00:27;25.00;99.90
12655;DHT22;6392;44.644;11.448;2023-08-07T11:02:58;25.10;99.90
12655;DHT22;6392;44.644;11.448;2023-08-07T11:05:27;25.10;99.90
12655;DHT22;6392;44.644;11.448;2023-08-07T11:07:54;25.20;99.90
12655;DHT22;6392;44.644;11.448;2023-08-07T11:10:24;25.20;99.90
12655;DHT22;6392;44.644;11.448;2023-08-07T11:12:51;25.20;99.90
12655;DHT22;6392;44.644;11.448;2023-08-07T11:15:20;25.30;99.90
12655;DHT22;6392;44.644;11.448;2023-08-07T11:17:47;25.30;99.90
12655;DHT22;6392;44.644;11.448;2023-08-07T11:20:14;25.30;99.90
12655;DHT22;6392;44.644;11.448;2023-08-07T11:22:43;25.30;99.90
12655;DHT22;6392;44.644;11.448;2023-08-07T11:25:10;25.30;99.90
12655;DHT22;6392;44.644;11.448;2023-08-07T11:27:39;25.40;99.90
12655;DHT22;6392;44.644;11.448;2023-08-07T11:30:11;25.50;99.90
12655;DHT22;6392;44.644;11.448;2023-08-07T11:32:40;25.50;99.90
12655;DHT22;6392;44.644;11.448;2023-08-07T11:35:07;25.50;99.90
12655;DHT22;6392;44.644;11.448;2023-08-07T11:37:35;25.60;99.90
12655;DHT22;6392;44.644;11.448;2023-08-07T11:40:03;25.70;99.90
12655;DHT22;6392;44.644;11.448;2023-08-07T11:42:30;25.70;99.90
12655;DHT22;6392;44.644;11.448;2023-08-07T11:44:57;25.80;99.90
12655;DHT22;6392;44.644;11.448;2023-08-07T11:47:24;25.80;99.90
12655;DHT22;6392;44.644;11.448;2023-08-07T11:49:53;25.90;99.90
12655;DHT22;6392;44.644;11.448;2023-08-07T11:52:21;26.00;99.90
12655;DHT22;6392;44.644;11.448;2023-08-07T11:54:49;26.00;99.90
12655;DHT22;6392;44.644;11.448;2023-08-07T11:57:17;26.10;99.90
12655;DHT22;6392;44.644;11.448;2023-08-07T11:59:49;26.20;99.90
12655;DHT22;6392;44.644;11.448;2023-08-07T12:02:16;26.20;99.90
12655;DHT22;6392;44.644;11.448;2023-08-07T12:04:43;26.30;99.40
12655;DHT22;6392;44.644;11.448;2023-08-07T12:07:17;26.30;99.20
12655;DHT22;6392;44.644;11.448;2023-08-07T12:09:45;26.40;99.90
12655;DHT22;6392;44.644;11.448;2023-08-07T12:12:12;26.40;98.70
12655;DHT22;6392;44.644;11.448;2023-08-07T12:14:39;26.50;99.60
12655;DHT22;6392;44.644;11.448;2023-08-07T12:17:09;26.70;99.40
12655;DHT22;6392;44.644;11.448;2023-08-07T12:19:37;26.90;98.40
12655;DHT22;6392;44.644;11.448;2023-08-07T12:22:06;27.10;97.70
12655;DHT22;6392;44.644;11.448;2023-08-07T12:24:36;27.30;96.40
12655;DHT22;6392;44.644;11.448;2023-08-07T12:27:04;27.40;95.80
12655;DHT22;6392;44.644;11.448;2023-08-07T12:29:31;27.60;95.80
12655;DHT22;6392;44.644;11.448;2023-08-07T12:31:58;27.70;94.40
12655;DHT22;6392;44.644;11.448;2023-08-07T12:34:27;27.90;92.60
12655;DHT22;6392;44.644;11.448;2023-08-07T12:36:53;27.90;94.00
12655;DHT22;6392;44.644;11.448;2023-08-07T12:39:21;27.90;93.70
12655;DHT22;6392;44.644;11.448;2023-08-07T12:41:49;28.10;89.20
12655;DHT22;6392;44.644;11.448;2023-08-07T12:44:16;28.20;89.80
12655;DHT22;6392;44.644;11.448;2023-08-07T12:46:43;28.30;90.00
12655;DHT22;6392;44.644;11.448;2023-08-07T12:49:10;28.50;90.20
12655;DHT22;6392;44.644;11.448;2023-08-07T12:51:37;28.60;88.10
12655;DHT22;6392;44.644;11.448;2023-08-07T12:54:04;28.90;86.70
12655;DHT22;6392;44.644;11.448;2023-08-07T12:56:31;29.10;89.10
12655;DHT22;6392;44.644;11.448;2023-08-07T12:59:00;29.20;86.70
12655;DHT22;6392;44.644;11.448;2023-08-07T13:01:29;29.40;86.60
12655;DHT22;6392;44.644;11.448;2023-08-07T13:03:56;29.60;82.10
12655;DHT22;6392;44.644;11.448;2023-08-07T13:06:23;29.60;80.00
12655;DHT22;6392;44.644;11.448;2023-08-07T13:08:50;29.70;78.60
12655;DHT22;6392;44.644;11.448;2023-08-07T13:11:17;29.80;80.20
12655;DHT22;6392;44.644;11.448;2023-08-07T13:13:44;29.90;77.30
12655;DHT22;6392;44.644;11.448;2023-08-07T13:16:12;30.00;75.10
12655;DHT22;6392;44.644;11.448;2023-08-07T13:18:39;30.20;74.40
12655;DHT22;6392;44.644;11.448;2023-08-07T13:21:06;30.30;71.80
12655;DHT22;6392;44.644;11.448;2023-08-07T13:23:33;30.30;73.70
12655;DHT22;6392;44.644;11.448;2023-08-07T13:26:00;30.50;77.50
12655;DHT22;6392;44.644;11.448;2023-08-07T13:28:27;30.70;74.20
12655;DHT22;6392;44.644;11.448;2023-08-07T13:30:54;30.80;72.50
12655;DHT22;6392;44.644;11.448;2023-08-07T13:33:23;30.80;72.00
12655;DHT22;6392;44.644;11.448;2023-08-07T13:35:50;30.90;70.90
12655;DHT22;6392;44.644;11.448;2023-08-07T13:38:17;31.10;73.40
12655;DHT22;6392;44.644;11.448;2023-08-07T13:40:45;31.30;71.10
12655;DHT22;6392;44.644;11.448;2023-08-07T13:43:12;31.40;67.50
12655;DHT22;6392;44.644;11.448;2023-08-07T13:45:39;31.50;70.80
12655;DHT22;6392;44.644;11.448;2023-08-07T13:48:06;31.50;68.90
12655;DHT22;6392;44.644;11.448;2023-08-07T13:50:36;31.50;67.70
12655;DHT22;6392;44.644;11.448;2023-08-07T13:53:04;31.60;67.50
12655;DHT22;6392;44.644;11.448;2023-08-07T13:55:31;31.80;69.70
12655;DHT22;6392;44.644;11.448;2023-08-07T13:57:58;32.00;68.50
12655;DHT22;6392;44.644;11.448;2023-08-07T14:00:25;32.20;66.40
12655;DHT22;6392;44.644;11.448;2023-08-07T14:02:53;32.30;67.40
12655;DHT22;6392;44.644;11.448;2023-08-07T14:05:20;32.40;69.10
12655;DHT22;6392;44.644;11.448;2023-08-07T14:07:49;32.60;71.60
12655;DHT22;6392;44.644;11.448;2023-08-07T14:10:16;32.60;72.70
12655;DHT22;6392;44.644;11.448;2023-08-07T14:12:43;32.70;68.70
12655;DHT22;6392;44.644;11.448;2023-08-07T14:15:10;32.60;77.20
12655;DHT22;6392;44.644;11.448;2023-08-07T14:17:37;32.70;74.50
12655;DHT22;6392;44.644;11.448;2023-08-07T14:20:05;32.90;67.80
12655;DHT22;6392;44.644;11.448;2023-08-07T14:22:34;33.10;67.00
12655;DHT22;6392;44.644;11.448;2023-08-07T14:25:05;33.30;65.50
12655;DHT22;6392;44.644;11.448;2023-08-07T14:27:33;33.60;66.50
12655;DHT22;6392;44.644;11.448;2023-08-07T14:30:00;33.80;67.70
12655;DHT22;6392;44.644;11.448;2023-08-07T14:32:27;34.00;64.60
12655;DHT22;6392;44.644;11.448;2023-08-07T14:34:54;34.10;62.30
12655;DHT22;6392;44.644;11.448;2023-08-07T14:37:21;34.30;61.00
12655;DHT22;6392;44.644;11.448;2023-08-07T14:39:48;34.30;69.90
12655;DHT22;6392;44.644;11.448;2023-08-07T14:42:16;33.90;68.10
12655;DHT22;6392;44.644;11.448;2023-08-07T14:44:43;33.80;67.90
12655;DHT22;6392;44.644;11.448;2023-08-07T14:47:10;33.90;74.60
12655;DHT22;6392;44.644;11.448;2023-08-07T14:49:37;33.70;64.60
12655;DHT22;6392;44.644;11.448;2023-08-07T14:52:05;33.90;64.30
12655;DHT22;6392;44.644;11.448;2023-08-07T14:54:32;33.90;68.60
12655;DHT22;6392;44.644;11.448;2023-08-07T14:56:59;34.10;66.00
12655;DHT22;6392;44.644;11.448;2023-08-07T14:59:28;34.30;64.40
12655;DHT22;6392;44.644;11.448;2023-08-07T15:01:55;34.50;62.60
12655;DHT22;6392;44.644;11.448;2023-08-07T15:04:22;34.70;58.60
12655;DHT22;6392;44.644;11.448;2023-08-07T15:06:49;35.00;56.80
12655;DHT22;6392;44.644;11.448;2023-08-07T15:09:16;35.20;58.50
12655;DHT22;6392;44.644;11.448;2023-08-07T15:11:45;35.40;58.60
12655;DHT22;6392;44.644;11.448;2023-08-07T15:14:12;35.50;57.90
12655;DHT22;6392;44.644;11.448;2023-08-07T15:16:40;35.50;59.00
12655;DHT22;6392;44.644;11.448;2023-08-07T15:19:07;35.50;53.00
12655;DHT22;6392;44.644;11.448;2023-08-07T15:21:34;35.50;53.20
12655;DHT22;6392;44.644;11.448;2023-08-07T15:24:01;35.60;54.20
12655;DHT22;6392;44.644;11.448;2023-08-07T15:26:28;35.70;54.70
12655;DHT22;6392;44.644;11.448;2023-08-07T15:28:55;35.90;53.60
12655;DHT22;6392;44.644;11.448;2023-08-07T15:31:22;36.00;53.40
12655;DHT22;6392;44.644;11.448;2023-08-07T15:33:51;36.10;55.50